Time;durP1;ratioP1;P1;durP2;ratioP2;P2;SDS_P1;SDS_P2;PMS_P1;PMS_P2;Temp;Humidity;BMP_temperature;BMP_pressure;BME280_temperature;BME280_humidity;BME280_pressure;Samples;Min_cycle;Max_cycle;Signal;HPM_P1;HPM_P2
2022/06/05 00:03:11;;;;;;;;;;;;;;;;;;8420300;27;29374;-71
2022/06/05 00:07:11;;;;;;;;;;;;;;;;;;8416382;27;27541;-71
2022/06/05 00:11:11;;;;;;;;;;;;;;;;;;8417084;27;29738;-72
2022/06/05 00:15:11;;;;;;;;;;;;;;;;;;8416659;27;28854;-72
2022/06/05 00:19:12;;;;;;;;;;;;;;;;;;8414219;27;27200;-72
2022/06/05 00:23:12;;;;;;;;;;;;;;;;;;8415432;27;27274;-72
2022/06/05 00:27:12;;;;;;;;;;;;;;;;;;8415018;27;27536;-72
2022/06/05 00:31:13;;;;;;;;;;;;;;;;;;8418019;27;29998;-73
2022/06/05 00:35:15;;;;;;;;;;;;;;;;;;8419183;27;27412;-72
2022/06/05 00:39:15;;;;;;;;;;;;;;;;;;8417424;27;27462;-71
2022/06/05 00:43:15;;;;;;;;;;;;;;;;;;8418896;27;27469;-71
2022/06/05 00:47:16;;;;;;;;;;;;;;;;;;8415340;27;27391;-72
2022/06/05 00:51:16;;;;;;;;;;;;;;;;;;8417294;27;27622;-72
2022/06/05 00:55:16;;;;;;;;;;;;;;;;;;8413052;27;27715;-71
2022/06/05 00:59:16;;;;;;;;;;;;;;;;;;8415165;27;28689;-71
2022/06/05 01:03:16;;;;;;;;;;;;;;;;;;8416129;27;27412;-71
2022/06/05 01:07:19;;;;;;;;;;;;;;;;;;8414784;27;28580;-71
2022/06/05 01:11:19;;;;;;;;;;;;;;;;;;8416254;27;28797;-71
2022/06/05 01:15:21;;;;;;;;;;;;;;;;;;8416148;27;27163;-71
2022/06/05 01:19:21;;;;;;;;;;;;;;;;;;8416018;27;27505;-71
2022/06/05 01:23:22;;;;;;;;;;;;;;;;;;8415155;27;29237;-71
2022/06/05 01:27:22;;;;;;;;;;;;;;;;;;8417859;27;27175;-71
2022/06/05 01:31:22;;;;;;;;;;;;;;;;;;8414848;27;27444;-71
2022/06/05 01:35:22;;;;;;;;;;;;;;;;;;8412638;27;28040;-71
2022/06/05 01:39:22;;;;;;;;;;;;;;;;;;8412235;27;27364;-71
2022/06/05 01:43:22;;;;;;;;;;;;;;;;;;8411986;27;27361;-71
2022/06/05 01:47:22;;;;;;;;;;;;;;;;;;8410088;27;27335;-71
2022/06/05 01:51:23;;;;;;;;;;;;;;;;;;8412903;27;27381;-71
2022/06/05 01:55:23;;;;;;;;;;;;;;;;;;8408799;27;29548;-72
2022/06/05 01:59:23;;;;;;;;;;;;;;;;;;8418416;27;27367;-72
2022/06/05 02:03:23;;;;;;;;;;;;;;;;;;8407275;27;27455;-71
2022/06/05 02:07:26;;;;;;;;;;;;;;;;;;8416649;27;28819;-71
2022/06/05 02:11:26;;;;;;;;;;;;;;;;;;8407475;27;28663;-72
2022/06/05 02:15:29;;;;;;;;;;;;;;;;;;8408545;27;27318;-71
2022/06/05 02:19:30;;;;;;;;;;;;;;;;;;8413938;27;28614;-71
2022/06/05 02:23:30;;;;;;;;;;;;;;;;;;8407852;27;28372;-71
2022/06/05 02:27:30;;;;;;;;;;;;;;;;;;8417134;27;28573;-71
2022/06/05 02:31:30;;;;;;;;;;;;;;;;;;8405737;27;27248;-71
2022/06/05 02:35:30;;;;;;;;;;;;;;;;;;8410570;27;27293;-71
2022/06/05 02:39:30;;;;;;;;;;;;;;;;;;8409326;27;27314;-72
2022/06/05 02:43:30;;;;;;;;;;;;;;;;;;8411877;27;27196;-71
2022/06/05 02:47:31;;;;;;;;;;;;;;;;;;8414477;27;28186;-71
2022/06/05 02:51:32;;;;;;;;;;;;;;;;;;8406797;27;27205;-71
2022/06/05 02:55:32;;;;;;;;;;;;;;;;;;8411639;27;27683;-71
2022/06/05 02:59:32;;;;;;;;;;;;;;;;;;8407043;27;28800;-71
2022/06/05 03:03:32;;;;;;;;;;;;;;;;;;8401455;27;27422;-71
2022/06/05 03:07:32;;;;;;;;;;;;;;;;;;8415519;27;27164;-71
2022/06/05 03:11:33;;;;;;;;;;;;;;;;;;8409142;27;27766;-70
2022/06/05 03:15:33;;;;;;;;;;;;;;;;;;8410634;27;27814;-71
2022/06/05 03:19:33;;;;;;;;;;;;;;;;;;8409241;27;28281;-71
2022/06/05 03:23:33;;;;;;;;;;;;;;;;;;8405900;27;27739;-71
2022/06/05 03:27:33;;;;;;;;;;;;;;;;;;8408332;27;28089;-71
2022/06/05 03:31:33;;;;;;;;;;;;;;;;;;8409195;27;27824;-72
2022/06/05 03:35:33;;;;;;;;;;;;;;;;;;8410710;27;28430;-71
2022/06/05 03:39:33;;;;;;;;;;;;;;;;;;8408857;27;27347;-71
2022/06/05 03:43:34;;;;;;;;;;;;;;;;;;8409725;27;27358;-71
2022/06/05 03:47:34;;;;;;;;;;;;;;;;;;8411488;27;27404;-71
2022/06/05 03:51:36;;;;;;;;;;;;;;;;;;8411828;27;27354;-71
2022/06/05 03:55:36;;;;;;;;;;;;;;;;;;8412017;27;27395;-71
2022/06/05 03:59:37;;;;;;;;;;;;;;;;;;8416477;27;28013;-70
2022/06/05 04:03:37;;;;;;;;;;;;;;;;;;8416210;27;27300;-71
2022/06/05 04:07:37;;;;;;;;;;;;;;;;;;8418344;27;28362;-71
2022/06/05 04:11:39;;;;;;;;;;;;;;;;;;8415906;27;27158;-71
2022/06/05 04:15:40;;;;;;;;;;;;;;;;;;8416970;27;27136;-71
2022/06/05 04:19:40;;;;;;;;;;;;;;;;;;8421215;27;28560;-71
2022/06/05 04:23:40;;;;;;;;;;;;;;;;;;8420671;27;46894;-70
2022/06/05 04:27:41;;;;;;;;;;;;;;;;;;8415714;27;27439;-70
2022/06/05 04:31:41;;;;;;;;;;;;;;;;;;8417504;27;27404;-70
2022/06/05 04:35:43;;;;;;;;;;;;;;;;;;8412412;27;27369;-70
2022/06/05 04:39:43;;;;;;;;;;;;;;;;;;8418484;27;28376;-69
2022/06/05 04:43:43;;;;;;;;;;;;;;;;;;8412725;27;28624;-71
2022/06/05 04:47:44;;;;;;;;;;;;;;;;;;8415311;27;28569;-70
2022/06/05 04:51:44;;;;;;;;;;;;;;;;;;8416109;27;28276;-71
2022/06/05 04:55:45;;;;;;;;;;;;;;;;;;8414568;27;27493;-71
2022/06/05 04:59:45;;;;;;;;;;;;;;;;;;8416394;27;27447;-71
2022/06/05 05:03:45;;;;;;;;;;;;;;;;;;8413060;27;28072;-71
2022/06/05 05:07:45;;;;;;;;;;;;;;;;;;8417066;27;27204;-70
2022/06/05 05:11:45;;;;;;;;;;;;;;;;;;8413151;27;27523;-71
2022/06/05 05:15:45;;;;;;;;;;;;;;;;;;8416427;27;27507;-71
2022/06/05 05:19:45;;;;;;;;;;;;;;;;;;8415893;27;27349;-71
2022/06/05 05:23:45;;;;;;;;;;;;;;;;;;8415629;27;28582;-71
2022/06/05 05:27:45;;;;;;;;;;;;;;;;;;8413758;27;27137;-71
2022/06/05 05:31:46;;;;;;;;;;;;;;;;;;8417224;27;27868;-71
2022/06/05 05:35:46;;;;;;;;;;;;;;;;;;8415443;27;27375;-71
2022/06/05 05:44:05;;;;;;;;;;;;;;;;;;8411524;27;27339;-71
2022/06/05 05:48:05;;;;;;;;;;;;;;;;;;8420850;27;28433;-71
2022/06/05 05:52:05;;;;;;;;;;;;;;;;;;8413873;27;27406;-72
2022/06/05 05:56:05;;;;;;;;;;;;;;;;;;8413557;27;27300;-71
2022/06/05 06:00:05;;;;;;;;;;;;;;;;;;8417571;27;27340;-71
2022/06/05 06:04:05;;;;;;;;;;;;;;;;;;8415506;27;27446;-71
2022/06/05 06:08:05;;;;;;;;;;;;;;;;;;8413706;27;29378;-72
2022/06/05 06:12:05;;;;;;;;;;;;;;;;;;8421338;27;27573;-71
2022/06/05 06:16:07;;;;;;;;;;;;;;;;;;8418329;27;27809;-71
2022/06/05 06:20:07;;;;;;;;;;;;;;;;;;8414852;27;29227;-71
2022/06/05 06:24:07;;;;;;;;;;;;;;;;;;8412841;27;27747;-71
2022/06/05 06:28:07;;;;;;;;;;;;;;;;;;8415713;27;27285;-71
2022/06/05 06:32:07;;;;;;;;;;;;;;;;;;8412864;27;27204;-72
2022/06/05 06:36:10;;;;;;;;;;;;;;;;;;8414671;27;27128;-72
2022/06/05 06:40:10;;;;;;;;;;;;;;;;;;8408594;27;27453;-72
2022/06/05 06:44:10;;;;;;;;;;;;;;;;;;8413080;27;27431;-72
2022/06/05 06:48:10;;;;;;;;;;;;;;;;;;8416592;27;29972;-72
2022/06/05 06:52:10;;;;;;;;;;;;;;;;;;8410547;27;27857;-72
2022/06/05 06:56:11;;;;;;;;;;;;;;;;;;8413941;27;28010;-72
2022/06/05 07:00:11;;;;;;;;;;;;;;;;;;8412494;27;28188;-71
2022/06/05 07:04:11;;;;;;;;;;;;;;;;;;8412875;27;27458;-71
2022/06/05 07:08:11;;;;;;;;;;;;;;;;;;8416106;27;28350;-71
2022/06/05 07:12:11;;;;;;;;;;;;;;;;;;8414210;27;28601;-71
2022/06/05 07:16:11;;;;;;;;;;;;;;;;;;8409929;27;27481;-71
2022/06/05 07:20:11;;;;;;;;;;;;;;;;;;8417488;27;28381;-71
2022/06/05 07:24:15;;;;;;;;;;;;;;;;;;8408962;27;27388;-71
2022/06/05 07:28:15;;;;;;;;;;;;;;;;;;8412511;27;28528;-72
2022/06/05 07:32:15;;;;;;;;;;;;;;;;;;8415167;27;27401;-72
2022/06/05 07:36:16;;;;;;;;;;;;;;;;;;8418327;27;27253;-71
2022/06/05 07:40:16;;;;;;;;;;;;;;;;;;8420397;27;27449;-71
2022/06/05 07:44:16;;;;;;;;;;;;;;;;;;8418857;27;27429;-71
2022/06/05 07:48:18;;;;;;;;;;;;;;;;;;8420506;27;27403;-71
2022/06/05 07:56:37;;;;;;;;;;;;;;;;;;8418835;27;27586;-70
2022/06/05 08:00:38;;;;;;;;;;;;;;;;;;8416996;27;27366;-71
2022/06/05 08:04:41;;;;;;;;;;;;;;;;;;8417318;27;27569;-70
2022/06/05 08:08:41;;;;;;;;;;;;;;;;;;8417734;27;28035;-71
2022/06/05 08:12:41;;;;;;;;;;;;;;;;;;8417874;27;27389;-71
2022/06/05 08:16:43;;;;;;;;;;;;;;;;;;8419090;27;28689;-71
2022/06/05 08:20:43;;;;;;;;;;;;;;;;;;8416045;27;29343;-72
2022/06/05 08:24:43;;;;;;;;;;;;;;;;;;8416618;27;27481;-72
2022/06/05 08:28:44;;;;;;;;;;;;;;;;;;8416507;27;27363;-73
2022/06/05 08:32:44;;;;;;;;;;;;;;;;;;8415634;27;28266;-71
2022/06/05 08:36:44;;;;;;;;;;;;;;;;;;8414082;27;28504;-71
2022/06/05 08:45:03;;;;;;;;;;;;;;;;;;8416405;27;27341;-71
2022/06/05 08:49:03;;;;;;;;;;;;;;;;;;8413655;27;28665;-71
2022/06/05 08:53:03;;;;;;;;;;;;;;;;;;8417841;27;27429;-71
2022/06/05 08:57:03;;;;;;;;;;;;;;;;;;8417194;27;28533;-71
2022/06/05 09:01:04;;;;;;;;;;;;;;;;;;8415074;27;27305;-71
2022/06/05 09:05:04;;;;;;;;;;;;;;;;;;8415907;27;27160;-71
2022/06/05 09:09:05;;;;;;;;;;;;;;;;;;8418813;27;27326;-71
2022/06/05 09:13:05;;;;;;;;;;;;;;;;;;8414642;27;27543;-71
2022/06/05 09:17:05;;;;;;;;;;;;;;;;;;8419749;27;28424;-70
2022/06/05 09:21:05;;;;;;;;;;;;;;;;;;8414518;27;29214;-72
2022/06/05 09:25:05;;;;;;;;;;;;;;;;;;8415993;27;29401;-71
2022/06/05 09:29:05;;;;;;;;;;;;;;;;;;8414876;27;28250;-71
2022/06/05 09:33:06;;;;;;;;;;;;;;;;;;8417268;27;28358;-73
2022/06/05 09:37:06;;;;;;;;;;;;;;;;;;8420690;27;29444;-72
2022/06/05 09:41:06;;;;;;;;;;;;;;;;;;8412954;27;27165;-72
2022/06/05 09:45:06;;;;;;;;;;;;;;;;;;8421236;27;28485;-71
2022/06/05 09:49:06;;;;;;;;;;;;;;;;;;8415319;27;27272;-72
2022/06/05 09:53:07;;;;;;;;;;;;;;;;;;8406092;27;27594;-72
2022/06/05 10:01:28;;;;;;;;;;;;;;;;;;8411818;27;27444;-72
2022/06/05 10:05:28;;;;;;;;;;;;;;;;;;8412311;27;27216;-71
2022/06/05 10:09:48;;;;;;;;;;;;;;;;;;;;;
2022/06/05 10:13:50;;;;;;;;;;;;;;;;;;8400853;27;56967;-72
2022/06/05 10:17:53;;;;;;;;;;;;;;;;;;8408817;27;27807;-72
2022/06/05 10:21:53;;;;;;;;;;;;;;;;;;8411326;27;28654;-72
2022/06/05 10:25:53;;;;;;;;;;;;;;;;;;8413240;27;27454;-71
2022/06/05 10:29:53;;;;;;;;;;;;;;;;;;8410072;27;27090;-71
2022/06/05 10:33:53;;;;;;;;;;;;;;;;;;8413632;27;28480;-72
2022/06/05 10:37:54;;;;;;;;;;;;;;;;;;8411825;27;27471;-71
2022/06/05 10:41:56;;;;;;;;;;;;;;;;;;8410306;27;27379;-71
2022/06/05 10:45:56;;;;;;;;;;;;;;;;;;8408808;27;28103;-71
2022/06/05 10:49:57;;;;;;;;;;;;;;;;;;8408349;27;27673;-70
2022/06/05 10:53:57;;;;;;;;;;;;;;;;;;8408998;27;27277;-71
2022/06/05 10:57:57;;;;;;;;;;;;;;;;;;8402672;27;28020;-71
2022/06/05 11:01:57;;;;;;;;;;;;;;;;;;8398646;27;27727;-71
2022/06/05 11:05:57;;;;;;;;;;;;;;;;;;8404511;27;27786;-72
2022/06/05 11:09:57;;;;;;;;;;;;;;;;;;8404842;27;28290;-71
2022/06/05 11:13:57;;;;;;;;;;;;;;;;;;8407519;27;27439;-72
2022/06/05 11:17:57;;;;;;;;;;;;;;;;;;8408476;27;27704;-72
2022/06/05 11:21:58;;;;;;;;;;;;;;;;;;8406238;27;27433;-71
2022/06/05 11:25:59;;;;;;;;;;;;;;;;;;8409082;27;27121;-71
2022/06/05 11:29:59;;;;;;;;;;;;;;;;;;8408930;27;27555;-71
2022/06/05 11:33:59;;;;;;;;;;;;;;;;;;8408705;27;28525;-72
2022/06/05 11:37:59;;;;;;;;;;;;;;;;;;8409129;27;27436;-71
2022/06/05 11:41:59;;;;;;;;;;;;;;;;;;8413626;27;28389;-71
2022/06/05 11:45:59;;;;;;;;;;;;;;;;;;8409040;27;27915;-71
2022/06/05 11:50:01;;;;;;;;;;;;;;;;;;8414002;27;28051;-72
2022/06/05 11:54:01;;;;;;;;;;;;;;;;;;8407277;27;28397;-71
2022/06/05 11:58:01;;;;;;;;;;;;;;;;;;8408317;27;27743;-72
2022/06/05 12:02:02;;;;;;;;;;;;;;;;;;8412126;27;28307;-72
2022/06/05 12:06:02;;;;;;;;;;;;;;;;;;8411570;27;27413;-71
2022/06/05 12:10:02;;;;;;;;;;;;;;;;;;8407381;27;27383;-72
2022/06/05 12:14:03;;;;;;;;;;;;;;;;;;8411809;27;28439;-71
2022/06/05 12:18:03;;;;;;;;;;;;;;;;;;8405308;27;28006;-71
2022/06/05 12:22:03;;;;;;;;;;;;;;;;;;8412699;27;28635;-71
2022/06/05 12:26:03;;;;;;;;;;;;;;;;;;8404532;27;27771;-71
2022/06/05 12:30:03;;;;;;;;;;;;;;;;;;8402948;27;27687;-71
2022/06/05 12:34:03;;;;;;;;;;;;;;;;;;8405980;27;28497;-71
2022/06/05 12:38:03;;;;;;;;;;;;;;;;;;8407486;27;27843;-71
2022/06/05 12:42:03;;;;;;;;;;;;;;;;;;8407560;27;27923;-72
2022/06/05 12:46:04;;;;;;;;;;;;;;;;;;8409152;27;28056;-72
2022/06/05 12:50:04;;;;;;;;;;;;;;;;;;8404599;27;27449;-72
2022/06/05 12:54:04;;;;;;;;;;;;;;;;;;8408334;27;27981;-72
2022/06/05 12:58:04;;;;;;;;;;;;;;;;;;8411079;27;28638;-72
2022/06/05 13:02:04;;;;;;;;;;;;;;;;;;8407098;27;27469;-72
2022/06/05 13:06:04;;;;;;;;;;;;;;;;;;8409712;27;27275;-71
2022/06/05 13:10:05;;;;;;;;;;;;;;;;;;8408177;27;28154;-71
2022/06/05 13:14:05;;;;;;;;;;;;;;;;;;8407813;27;28101;-72
2022/06/05 13:18:06;;;;;;;;;;;;;;;;;;8404737;27;27436;-72
2022/06/05 13:22:06;;;;;;;;;;;;;;;;;;8408273;27;27671;-72
2022/06/05 13:26:08;;;;;;;;;;;;;;;;;;8408962;27;27482;-72
2022/06/05 13:30:08;;;;;;;;;;;;;;;;;;8407229;27;27348;-71
2022/06/05 13:34:08;;;;;;;;;;;;;;;;;;8404540;27;27234;-73
2022/06/05 13:38:08;;;;;;;;;;;;;;;;;;8406370;27;27491;-73
2022/06/05 13:42:08;;;;;;;;;;;;;;;;;;8407946;27;27322;-72
2022/06/05 13:46:09;;;;;;;;;;;;;;;;;;8408801;27;27451;-72
2022/06/05 13:50:09;;;;;;;;;;;;;;;;;;8410302;27;27844;-72
2022/06/05 13:54:09;;;;;;;;;;;;;;;;;;8411612;27;27469;-72
2022/06/05 13:58:09;;;;;;;;;;;;;;;;;;8406894;27;27978;-72
2022/06/05 14:02:09;;;;;;;;;;;;;;;;;;8411764;27;27420;-72
2022/06/05 14:06:09;;;;;;;;;;;;;;;;;;8407295;27;27528;-72
2022/06/05 14:10:09;;;;;;;;;;;;;;;;;;8407426;27;27615;-72
2022/06/05 14:14:10;;;;;;;;;;;;;;;;;;8406771;27;28053;-72
2022/06/05 14:18:10;;;;;;;;;;;;;;;;;;8406357;27;28211;-72
2022/06/05 14:22:10;;;;;;;;;;;;;;;;;;8407179;27;27369;-72
2022/06/05 14:26:12;;;;;;;;;;;;;;;;;;8405973;27;46616;-72
2022/06/05 14:30:12;;;;;;;;;;;;;;;;;;8405680;27;27724;-72
2022/06/05 14:34:12;;;;;;;;;;;;;;;;;;8406665;27;29499;-72
2022/06/05 14:38:14;;;;;;;;;;;;;;;;;;8400347;27;27646;-72
2022/06/05 14:42:14;;;;;;;;;;;;;;;;;;8406103;27;27420;-73
2022/06/05 14:46:14;;;;;;;;;;;;;;;;;;8404446;27;27503;-71
2022/06/05 14:50:14;;;;;;;;;;;;;;;;;;8402883;27;27635;-72
2022/06/05 14:54:14;;;;;;;;;;;;;;;;;;8406377;27;29384;-72
2022/06/05 14:58:15;;;;;;;;;;;;;;;;;;8408234;27;28266;-72
2022/06/05 15:02:15;;;;;;;;;;;;;;;;;;8400143;27;27481;-72
2022/06/05 15:06:15;;;;;;;;;;;;;;;;;;8402945;27;28247;-72
2022/06/05 15:10:15;;;;;;;;;;;;;;;;;;8411052;27;29404;-72
2022/06/05 15:14:15;;;;;;;;;;;;;;;;;;8406688;27;27471;-72
2022/06/05 15:18:15;;;;;;;;;;;;;;;;;;8402493;27;27852;-73
2022/06/05 15:22:15;;;;;;;;;;;;;;;;;;8402288;27;27443;-72
2022/06/05 15:26:15;;;;;;;;;;;;;;;;;;8406020;27;27178;-72
2022/06/05 15:30:16;;;;;;;;;;;;;;;;;;8399557;27;27432;-73
2022/06/05 15:34:16;;;;;;;;;;;;;;;;;;8402384;27;27556;-72
2022/06/05 15:38:16;;;;;;;;;;;;;;;;;;8402641;27;27707;-72
2022/06/05 15:42:18;;;;;;;;;;;;;;;;;;8406093;27;27248;-72
2022/06/05 15:46:19;;;;;;;;;;;;;;;;;;8402334;27;27469;-72
2022/06/05 15:50:19;;;;;;;;;;;;;;;;;;8400224;27;29201;-72
2022/06/05 15:54:19;;;;;;;;;;;;;;;;;;8409037;27;28101;-72
2022/06/05 15:58:20;;;;;;;;;;;;;;;;;;8409598;27;27474;-72
2022/06/05 16:02:21;;;;;;;;;;;;;;;;;;8408489;27;27791;-72
2022/06/05 16:06:21;;;;;;;;;;;;;;;;;;8409986;27;27293;-72
2022/06/05 16:10:21;;;;;;;;;;;;;;;;;;8407911;27;27733;-72
2022/06/05 16:14:22;;;;;;;;;;;;;;;;;;8404552;27;28303;-70
2022/06/05 16:18:22;;;;;;;;;;;;;;;;;;8406699;27;27455;-71
2022/06/05 16:22:22;;;;;;;;;;;;;;;;;;8407766;27;27731;-72
2022/06/05 16:26:22;;;;;;;;;;;;;;;;;;8408919;27;27581;-71
2022/06/05 16:30:23;;;;;;;;;;;;;;;;;;8404735;27;27164;-72
2022/06/05 16:34:23;;;;;;;;;;;;;;;;;;8403893;27;27550;-72
2022/06/05 16:38:23;;;;;;;;;;;;;;;;;;8407747;27;28427;-72
2022/06/05 16:42:24;;;;;;;;;;;;;;;;;;8405154;27;28519;-72
2022/06/05 16:46:24;;;;;;;;;;;;;;;;;;8404918;27;27241;-72
2022/06/05 16:50:31;;;;;;;;;;;;;;;;;;8404321;27;27620;-72
2022/06/05 16:54:31;;;;;;;;;;;;;;;;;;8403218;27;28338;-71
2022/06/05 16:58:31;;;;;;;;;;;;;;;;;;8405467;27;29401;-72
2022/06/05 17:02:31;;;;;;;;;;;;;;;;;;8405680;27;27455;-72
2022/06/05 17:06:35;;;;;;;;;;;;;;;;;;8401083;27;27572;-73
2022/06/05 17:10:35;;;;;;;;;;;;;;;;;;8405424;27;27614;-72
2022/06/05 17:14:38;;;;;;;;;;;;;;;;;;8405255;27;27492;-72
2022/06/05 17:18:40;;;;;;;;;;;;;;;;;;8407395;27;27680;-71
2022/06/05 17:22:44;;;;;;;;;;;;;;;;;;8406610;27;27527;-71
2022/06/05 17:26:44;;;;;;;;;;;;;;;;;;8409639;27;29289;-71
2022/06/05 17:30:47;;;;;;;;;;;;;;;;;;8408640;27;27463;-72
2022/06/05 17:34:48;;;;;;;;;;;;;;;;;;8408744;27;27310;-72
2022/06/05 17:38:48;;;;;;;;;;;;;;;;;;8405763;27;27932;-71
2022/06/05 17:42:48;;;;;;;;;;;;;;;;;;8404439;27;28132;-71
2022/06/05 17:46:48;;;;;;;;;;;;;;;;;;8405690;27;27637;-73
2022/06/05 17:50:48;;;;;;;;;;;;;;;;;;8405106;27;27192;-71
2022/06/05 17:54:48;;;;;;;;;;;;;;;;;;8405920;27;29401;-72
2022/06/05 17:58:48;;;;;;;;;;;;;;;;;;8405180;27;27222;-71
2022/06/05 18:02:49;;;;;;;;;;;;;;;;;;8404761;27;27137;-70
2022/06/05 18:06:50;;;;;;;;;;;;;;;;;;8408148;27;27574;-72
2022/06/05 18:10:50;;;;;;;;;;;;;;;;;;8405220;27;28365;-72
2022/06/05 18:14:50;;;;;;;;;;;;;;;;;;8403773;27;27415;-72
2022/06/05 18:18:51;;;;;;;;;;;;;;;;;;8404594;27;29152;-71
2022/06/05 18:22:51;;;;;;;;;;;;;;;;;;8405236;27;28358;-71
2022/06/05 18:26:51;;;;;;;;;;;;;;;;;;8406821;27;29479;-71
2022/06/05 18:30:51;;;;;;;;;;;;;;;;;;8403272;27;29115;-73
2022/06/05 18:34:51;;;;;;;;;;;;;;;;;;8404069;27;27432;-73
2022/06/05 18:38:51;;;;;;;;;;;;;;;;;;8402028;27;27385;-73
2022/06/05 18:42:51;;;;;;;;;;;;;;;;;;8406011;27;28023;-73
2022/06/05 18:46:53;;;;;;;;;;;;;;;;;;8404661;27;27749;-72
2022/06/05 18:50:53;;;;;;;;;;;;;;;;;;8406054;27;29315;-72
2022/06/05 18:54:53;;;;;;;;;;;;;;;;;;8405053;27;28728;-72
2022/06/05 18:58:54;;;;;;;;;;;;;;;;;;8405684;27;28713;-71
2022/06/05 19:02:54;;;;;;;;;;;;;;;;;;8403350;27;27520;-72
2022/06/05 19:06:56;;;;;;;;;;;;;;;;;;8401618;27;28399;-72
2022/06/05 19:10:56;;;;;;;;;;;;;;;;;;8408001;27;28438;-71
2022/06/05 19:14:57;;;;;;;;;;;;;;;;;;8404892;27;27895;-71
2022/06/05 19:18:59;;;;;;;;;;;;;;;;;;8401509;27;28423;-72
2022/06/05 19:23:02;;;;;;;;;;;;;;;;;;8404365;27;27397;-71
2022/06/05 19:27:02;;;;;;;;;;;;;;;;;;8407750;27;28458;-72
2022/06/05 19:31:03;;;;;;;;;;;;;;;;;;8410173;27;27823;-72
2022/06/05 19:35:03;;;;;;;;;;;;;;;;;;8406661;27;27981;-73
2022/06/05 19:39:04;;;;;;;;;;;;;;;;;;8409887;27;27620;-72
2022/06/05 19:43:05;;;;;;;;;;;;;;;;;;8414543;27;28314;-72
2022/06/05 19:47:05;;;;;;;;;;;;;;;;;;8409856;27;27920;-72
2022/06/05 19:51:05;;;;;;;;;;;;;;;;;;8413978;27;28555;-71
2022/06/05 19:55:05;;;;;;;;;;;;;;;;;;8417360;27;27711;-72
2022/06/05 19:59:08;;;;;;;;;;;;;;;;;;8410172;27;27495;-72
2022/06/05 20:03:08;;;;;;;;;;;;;;;;;;8409341;27;28200;-72
2022/06/05 20:07:08;;;;;;;;;;;;;;;;;;8403230;27;27491;-71
2022/06/05 20:11:09;;;;;;;;;;;;;;;;;;8412448;27;28175;-71
2022/06/05 20:15:20;;;;;;;;;;;;;;;;;;8407205;27;27626;-71
2022/06/05 20:19:20;;;;;;;;;;;;;;;;;;8405299;27;27606;-73
2022/06/05 20:23:20;;;;;;;;;;;;;;;;;;8410745;27;28325;-73
2022/06/05 20:27:20;;;;;;;;;;;;;;;;;;8411913;27;28557;-73
2022/06/05 20:31:21;;;;;;;;;;;;;;;;;;8407822;27;27343;-71
2022/06/05 20:35:21;;;;;;;;;;;;;;;;;;8408123;27;27357;-71
2022/06/05 20:39:21;;;;;;;;;;;;;;;;;;8406748;27;27782;-72
2022/06/05 20:43:21;;;;;;;;;;;;;;;;;;8408701;27;28293;-72
2022/06/05 20:47:24;;;;;;;;;;;;;;;;;;8404378;27;27425;-72
2022/06/05 20:51:24;;;;;;;;;;;;;;;;;;8408772;27;27852;-73
2022/06/05 20:55:25;;;;;;;;;;;;;;;;;;8410842;27;28111;-72
2022/06/05 20:59:25;;;;;;;;;;;;;;;;;;8404356;27;27696;-72
2022/06/05 21:07:44;;;;;;;;;;;;;;;;;;8405226;27;27579;-73
2022/06/05 21:20:22;;;;;;;;;;;;;;;;;;8406491;27;27423;-72
2022/06/05 21:24:22;;;;;;;;;;;;;;;;;;8401918;27;27806;-73
2022/06/05 21:28:22;;;;;;;;;;;;;;;;;;8400439;27;27203;-72
2022/06/05 21:32:22;;;;;;;;;;;;;;;;;;8400980;27;27529;-72
2022/06/05 21:36:22;;;;;;;;;;;;;;;;;;8405949;27;27203;-72
2022/06/05 21:40:22;;;;;;;;;;;;;;;;;;8400238;27;27733;-73
2022/06/05 21:44:23;;;;;;;;;;;;;;;;;;8400755;27;27386;-74
2022/06/05 21:48:23;;;;;;;;;;;;;;;;;;8403932;27;28512;-73
2022/06/05 21:52:26;;;;;;;;;;;;;;;;;;8407630;27;28276;-73
2022/06/05 21:56:26;;;;;;;;;;;;;;;;;;8408744;27;27985;-73
2022/06/05 22:00:26;;;;;;;;;;;;;;;;;;8400319;27;27955;-73
2022/06/05 22:04:26;;;;;;;;;;;;;;;;;;8408419;27;28242;-72
2022/06/05 22:08:26;;;;;;;;;;;;;;;;;;8404040;27;27576;-72
2022/06/05 22:12:26;;;;;;;;;;;;;;;;;;8406275;27;27621;-71
2022/06/05 22:16:26;;;;;;;;;;;;;;;;;;8401773;27;27428;-72
2022/06/05 22:20:27;;;;;;;;;;;;;;;;;;8403289;27;29641;-72
2022/06/05 22:24:27;;;;;;;;;;;;;;;;;;8406343;27;27854;-72
2022/06/05 22:28:29;;;;;;;;;;;;;;;;;;8408685;27;27338;-72
2022/06/05 22:32:32;;;;;;;;;;;;;;;;;;8408814;27;27818;-71
2022/06/05 22:36:35;;;;;;;;;;;;;;;;;;8407117;27;27119;-73
2022/06/05 22:40:38;;;;;;;;;;;;;;;;;;8405127;27;28389;-72
2022/06/05 22:44:38;;;;;;;;;;;;;;;;;;8405414;27;27831;-72
2022/06/05 22:48:38;;;;;;;;;;;;;;;;;;8405273;27;29362;-72
2022/06/05 22:52:38;;;;;;;;;;;;;;;;;;8402721;27;27664;-72
2022/06/05 22:56:39;;;;;;;;;;;;;;;;;;8402299;27;27667;-72
2022/06/05 23:00:39;;;;;;;;;;;;;;;;;;8406660;27;28487;-72
2022/06/05 23:04:39;;;;;;;;;;;;;;;;;;8404599;27;28500;-72
2022/06/05 23:08:39;;;;;;;;;;;;;;;;;;8400260;27;27646;-72
2022/06/05 23:12:42;;;;;;;;;;;;;;;;;;8403591;27;28252;-72
2022/06/05 23:16:42;;;;;;;;;;;;;;;;;;8402002;27;27295;-72
2022/06/05 23:20:42;;;;;;;;;;;;;;;;;;8408879;27;28504;-72
2022/06/05 23:24:43;;;;;;;;;;;;;;;;;;8401563;27;27372;-72
2022/06/05 23:28:43;;;;;;;;;;;;;;;;;;8403539;27;28557;-72
2022/06/05 23:32:43;;;;;;;;;;;;;;;;;;8404651;27;27891;-71
2022/06/05 23:36:43;;;;;;;;;;;;;;;;;;8401223;27;27337;-72
2022/06/05 23:40:43;;;;;;;;;;;;;;;;;;8402311;27;27263;-72
2022/06/05 23:44:43;;;;;;;;;;;;;;;;;;8402535;27;27609;-72
2022/06/05 23:48:43;;;;;;;;;;;;;;;;;;8403360;27;29550;-71
2022/06/05 23:52:44;;;;;;;;;;;;;;;;;;8403738;27;28337;-71
